Time;durP1;ratioP1;P1;durP2;ratioP2;P2;SDS_P1;SDS_P2;PMS_P1;PMS_P2;Temp;Humidity;BMP_temperature;BMP_pressure;BME280_temperature;BME280_humidity;BME280_pressure;Samples;Min_cycle;Max_cycle;Signal;HPM_P1;HPM_P2
2022/03/19 00:02:13;;;;;;;12.43;3.17;;;6.40;99.90;;;;;;5097740;27;20079;-68
2022/03/19 00:04:39;;;;;;;15.30;3.42;;;6.40;99.90;;;;;;5081833;28;20067;-68
2022/03/19 00:07:04;;;;;;;10.75;2.83;;;6.30;99.90;;;;;;5093747;28;20111;-68
2022/03/19 00:09:30;;;;;;;13.98;3.03;;;6.30;99.90;;;;;;5101664;28;20263;-67
2022/03/19 00:11:56;;;;;;;13.70;3.58;;;6.30;99.90;;;;;;5097913;28;20505;-68
2022/03/19 00:14:22;;;;;;;12.60;3.30;;;6.20;99.90;;;;;;5076490;28;20039;-68
2022/03/19 00:16:48;;;;;;;16.83;3.58;;;6.10;99.90;;;;;;5092940;28;20370;-67
2022/03/19 00:19:13;;;;;;;10.25;2.88;;;6.10;99.90;;;;;;5094014;28;20502;-67
2022/03/19 00:21:39;;;;;;;13.38;3.33;;;6.00;99.90;;;;;;5095632;27;20036;-68
2022/03/19 00:24:06;;;;;;;11.82;2.85;;;6.00;99.90;;;;;;5095067;28;20477;-69
2022/03/19 00:26:33;;;;;;;11.18;2.55;;;5.90;99.90;;;;;;5094900;28;20468;-69
2022/03/19 00:28:58;;;;;;;11.73;2.83;;;5.80;99.90;;;;;;5096099;28;20059;-68
2022/03/19 00:31:24;;;;;;;12.38;3.08;;;5.80;99.90;;;;;;5095073;28;20353;-67
2022/03/19 00:33:50;;;;;;;10.40;2.90;;;5.80;99.90;;;;;;5092333;28;20132;-68
2022/03/19 00:36:15;;;;;;;11.27;2.97;;;5.70;99.90;;;;;;5074605;28;20040;-69
2022/03/19 00:38:41;;;;;;;13.35;3.00;;;5.60;99.90;;;;;;5093852;27;20031;-70
2022/03/19 00:41:07;;;;;;;13.65;3.30;;;5.60;99.90;;;;;;5065075;28;21230;-69
2022/03/19 00:43:34;;;;;;;12.98;3.20;;;5.60;99.90;;;;;;5075435;28;20050;-69
2022/03/19 00:45:59;;;;;;;11.85;3.00;;;5.50;99.90;;;;;;5094730;28;20385;-70
2022/03/19 00:48:25;;;;;;;15.20;3.17;;;5.60;99.90;;;;;;5095417;28;20040;-69
2022/03/19 00:50:51;;;;;;;10.15;3.25;;;5.50;99.90;;;;;;5092942;28;20061;-68
2022/03/19 00:53:16;;;;;;;12.68;3.03;;;5.50;99.90;;;;;;5072748;28;20197;-68
2022/03/19 00:55:42;;;;;;;16.02;3.50;;;5.50;99.90;;;;;;5067908;28;20389;-69
2022/03/19 00:58:07;;;;;;;13.02;3.20;;;5.50;99.90;;;;;;5093581;28;20635;-69
2022/03/19 01:00:33;;;;;;;12.25;3.05;;;5.50;99.90;;;;;;5094628;28;20104;-69
2022/03/19 01:02:59;;;;;;;13.60;2.80;;;5.40;99.90;;;;;;5094909;28;20060;-69
2022/03/19 01:05:25;;;;;;;10.32;3.25;;;5.30;99.90;;;;;;5093341;28;20190;-70
2022/03/19 01:07:53;;;;;;;14.77;3.47;;;5.30;99.90;;;;;;5100883;28;20043;-69
2022/03/19 01:10:21;;;;;;;13.02;3.03;;;5.40;99.90;;;;;;5102512;27;20505;-69
2022/03/19 01:12:50;;;;;;;17.48;3.10;;;5.40;99.90;;;;;;5088586;28;20043;-69
2022/03/19 01:15:17;;;;;;;12.07;2.95;;;5.30;99.90;;;;;;5094718;28;20092;-69
2022/03/19 01:17:43;;;;;;;9.63;2.63;;;5.30;99.90;;;;;;5093154;28;20043;-70
2022/03/19 01:20:10;;;;;;;10.23;2.88;;;5.40;99.90;;;;;;5096885;28;20050;-69
2022/03/19 01:22:37;;;;;;;11.77;2.95;;;5.30;99.90;;;;;;5090823;28;20054;-69
2022/03/19 01:25:05;;;;;;;13.85;3.17;;;5.20;99.90;;;;;;5094616;28;20088;-69
2022/03/19 01:27:35;;;;;;;9.77;2.63;;;5.20;99.90;;;;;;5091272;28;20069;-69
2022/03/19 01:30:01;;;;;;;14.35;2.90;;;5.20;99.90;;;;;;5097287;27;20039;-70
2022/03/19 01:32:27;;;;;;;13.15;3.10;;;5.20;99.90;;;;;;5075925;28;20091;-69
2022/03/19 01:34:53;;;;;;;11.55;2.97;;;5.20;99.90;;;;;;5097965;28;20051;-70
2022/03/19 01:37:20;;;;;;;9.90;2.58;;;5.10;99.90;;;;;;5091965;28;20048;-69
2022/03/19 01:39:45;;;;;;;10.98;2.67;;;5.00;99.90;;;;;;5093961;28;20541;-69
2022/03/19 01:42:11;;;;;;;11.85;2.83;;;5.00;99.90;;;;;;5093194;28;20111;-69
2022/03/19 01:44:36;;;;;;;13.15;3.10;;;5.00;99.90;;;;;;5091852;28;21709;-70
2022/03/19 01:47:10;;;;;;;12.63;3.05;;;5.00;99.90;;;;;;5096586;27;20048;-69
2022/03/19 01:49:36;;;;;;;10.80;2.78;;;4.90;99.90;;;;;;5091950;28;20148;-70
2022/03/19 01:52:03;;;;;;;12.27;3.17;;;4.90;99.90;;;;;;5091233;28;20054;-69
2022/03/19 01:54:31;;;;;;;16.67;3.40;;;4.90;99.90;;;;;;5092218;28;20081;-70
2022/03/19 01:56:58;;;;;;;12.85;3.03;;;4.90;99.90;;;;;;5091943;28;20126;-69
2022/03/19 01:59:27;;;;;;;13.52;3.17;;;4.80;99.90;;;;;;5098956;28;20119;-69
2022/03/19 02:01:53;;;;;;;14.32;3.80;;;4.90;99.90;;;;;;5104077;28;20122;-69
2022/03/19 02:04:21;;;;;;;15.50;3.05;;;4.80;99.90;;;;;;5103155;28;20176;-69
2022/03/19 02:06:47;;;;;;;12.98;3.40;;;4.90;99.90;;;;;;5099001;28;20049;-69
2022/03/19 02:09:13;;;;;;;15.85;3.78;;;4.80;99.90;;;;;;5105771;28;20058;-69
2022/03/19 02:11:39;;;;;;;12.75;3.05;;;4.80;99.90;;;;;;5105036;28;20349;-70
2022/03/19 02:14:04;;;;;;;18.85;3.20;;;4.80;99.90;;;;;;5098279;28;20114;-69
2022/03/19 02:16:30;;;;;;;14.85;3.60;;;4.80;99.90;;;;;;5094398;28;20079;-69
2022/03/19 02:18:58;;;;;;;14.00;3.60;;;4.70;99.90;;;;;;5091577;28;20791;-69
2022/03/19 02:21:24;;;;;;;12.15;3.50;;;4.80;99.90;;;;;;5090017;28;20355;-70
2022/03/19 02:26:47;;;;;;;11.63;3.42;;;4.70;99.90;;;;;;5088800;28;20060;-69
2022/03/19 02:29:13;;;;;;;12.90;3.22;;;4.70;99.90;;;;;;5090384;28;20039;-70
2022/03/19 02:31:40;;;;;;;9.13;3.38;;;4.70;99.90;;;;;;5091814;28;20050;-69
2022/03/19 02:34:09;;;;;;;10.98;3.65;;;4.70;99.90;;;;;;5075181;28;20047;-69
2022/03/19 02:36:36;;;;;;;14.38;3.85;;;4.70;99.90;;;;;;5092670;28;20050;-69
2022/03/19 02:39:31;;;;;;;10.55;3.50;;;4.70;99.90;;;;;;5094676;28;20442;-69
2022/03/19 02:42:01;;;;;;;12.00;3.35;;;4.70;99.90;;;;;;5088971;28;20052;-70
2022/03/19 02:44:27;;;;;;;9.95;3.55;;;4.70;99.90;;;;;;5094341;28;20151;-69
2022/03/19 02:46:56;;;;;;;14.23;3.63;;;4.70;99.90;;;;;;5089898;28;20080;-69
2022/03/19 02:49:22;;;;;;;15.40;3.83;;;4.70;99.90;;;;;;5091510;28;20032;-69
2022/03/19 02:51:49;;;;;;;11.48;3.05;;;4.70;99.90;;;;;;5091799;28;20043;-69
2022/03/19 02:54:16;;;;;;;11.20;3.58;;;4.70;99.90;;;;;;5092115;28;20046;-68
2022/03/19 02:56:43;;;;;;;11.63;3.70;;;4.60;99.90;;;;;;5090765;28;20055;-70
2022/03/19 02:59:20;;;;;;;12.50;3.53;;;4.70;99.90;;;;;;5093659;28;20050;-68
2022/03/19 03:01:50;;;;;;;13.85;3.63;;;4.70;99.90;;;;;;5090556;28;20143;-69
2022/03/19 03:04:16;;;;;;;8.10;3.15;;;4.70;99.90;;;;;;5093294;28;20126;-68
2022/03/19 03:06:44;;;;;;;13.20;3.70;;;4.60;99.90;;;;;;5092554;28;20575;-69
2022/03/19 03:09:10;;;;;;;14.13;3.97;;;4.70;99.90;;;;;;5098997;28;20044;-69
2022/03/19 03:11:37;;;;;;;15.75;3.80;;;4.70;99.90;;;;;;5099268;28;20051;-69
2022/03/19 03:14:08;;;;;;;12.45;3.47;;;4.70;99.90;;;;;;5092283;28;20036;-69
2022/03/19 03:16:34;;;;;;;8.93;3.10;;;4.70;99.90;;;;;;5092113;28;20044;-68
2022/03/19 03:19:05;;;;;;;13.55;3.88;;;4.60;99.90;;;;;;5094146;28;20087;-69
2022/03/19 03:21:34;;;;;;;14.07;3.72;;;4.60;99.90;;;;;;5097426;27;20107;-69
2022/03/19 03:24:01;;;;;;;14.45;3.47;;;4.60;99.90;;;;;;5109544;28;20473;-69
2022/03/19 03:26:27;;;;;;;13.35;4.20;;;4.60;99.90;;;;;;5097482;27;20078;-69
2022/03/19 03:28:53;;;;;;;17.80;3.92;;;4.60;99.90;;;;;;5098767;28;20439;-70
2022/03/19 03:31:19;;;;;;;12.00;3.53;;;4.60;99.90;;;;;;5105452;27;20036;-69
2022/03/19 03:33:45;;;;;;;14.05;4.00;;;4.60;99.90;;;;;;5106810;28;20035;-69
2022/03/19 03:36:10;;;;;;;13.23;4.03;;;4.50;99.90;;;;;;5070820;28;20043;-70
2022/03/19 03:38:36;;;;;;;12.35;3.95;;;4.50;99.90;;;;;;5092030;28;20072;-70
2022/03/19 03:41:02;;;;;;;15.32;4.30;;;4.50;99.90;;;;;;5107768;27;20145;-69
2022/03/19 03:43:28;;;;;;;12.05;4.05;;;4.50;99.90;;;;;;5103010;28;20035;-69
2022/03/19 03:45:54;;;;;;;16.80;4.82;;;4.50;99.90;;;;;;5092724;28;20128;-69
2022/03/19 03:48:20;;;;;;;14.93;4.97;;;4.50;99.90;;;;;;5102581;28;20083;-69
2022/03/19 03:50:49;;;;;;;12.40;4.05;;;4.50;99.90;;;;;;5108194;28;20243;-69
2022/03/19 03:53:15;;;;;;;11.88;3.72;;;4.50;99.90;;;;;;5098947;28;20119;-69
2022/03/19 03:55:40;;;;;;;14.48;4.55;;;4.50;99.90;;;;;;5102464;27;20127;-69
2022/03/19 03:58:08;;;;;;;13.75;3.95;;;4.50;99.90;;;;;;5102831;28;20047;-68
2022/03/19 04:00:34;;;;;;;10.82;3.80;;;4.50;99.90;;;;;;5100450;28;20047;-68
2022/03/19 04:03:00;;;;;;;14.82;4.32;;;4.50;99.90;;;;;;5097175;27;20043;-68
2022/03/19 04:05:26;;;;;;;12.52;3.95;;;4.50;99.90;;;;;;5095725;28;20062;-68
2022/03/19 04:07:52;;;;;;;13.27;3.80;;;4.50;99.90;;;;;;5094070;28;20080;-68
2022/03/19 04:10:18;;;;;;;14.02;4.20;;;4.40;99.90;;;;;;5095319;28;20040;-69
2022/03/19 04:12:44;;;;;;;14.98;4.55;;;4.40;99.90;;;;;;5079860;28;20047;-69
2022/03/19 04:15:10;;;;;;;10.10;4.20;;;4.40;99.90;;;;;;5095703;28;20062;-69
2022/03/19 04:17:37;;;;;;;12.15;4.22;;;4.40;99.90;;;;;;5093471;28;20044;-69
2022/03/19 04:20:05;;;;;;;16.33;4.57;;;4.40;99.90;;;;;;5095376;27;20051;-69
2022/03/19 04:22:39;;;;;;;16.38;4.40;;;4.40;99.90;;;;;;5091167;28;20063;-69
2022/03/19 04:25:13;;;;;;;12.95;4.18;;;4.40;99.90;;;;;;5095439;27;20544;-69
2022/03/19 04:27:40;;;;;;;10.80;4.45;;;4.40;99.90;;;;;;5091556;28;20352;-69
2022/03/19 04:30:06;;;;;;;12.95;4.72;;;4.40;99.90;;;;;;5074714;28;20047;-70
2022/03/19 04:32:32;;;;;;;14.45;4.35;;;4.30;99.90;;;;;;5093893;28;20040;-68
2022/03/19 04:34:57;;;;;;;15.30;4.57;;;4.30;99.90;;;;;;5094643;28;20042;-68
2022/03/19 04:37:23;;;;;;;11.82;3.85;;;4.20;99.90;;;;;;5094239;27;20040;-69
2022/03/19 04:39:48;;;;;;;14.27;4.25;;;4.20;99.90;;;;;;5095191;28;20051;-69
2022/03/19 04:42:14;;;;;;;14.77;5.00;;;4.20;99.90;;;;;;5094407;28;20036;-69
2022/03/19 04:44:40;;;;;;;16.55;4.35;;;4.10;99.90;;;;;;5075295;28;20054;-69
2022/03/19 04:47:05;;;;;;;17.83;4.43;;;4.10;99.90;;;;;;5094177;28;20067;-68
2022/03/19 04:49:31;;;;;;;15.90;4.80;;;4.10;99.90;;;;;;5094198;28;20032;-67
2022/03/19 04:51:57;;;;;;;14.40;4.80;;;4.10;99.90;;;;;;5093780;28;20052;-68
2022/03/19 04:54:23;;;;;;;15.85;4.40;;;4.10;99.90;;;;;;5075350;28;20467;-69
2022/03/19 04:56:48;;;;;;;14.43;4.60;;;4.10;99.90;;;;;;5093268;28;20075;-69
2022/03/19 04:59:15;;;;;;;16.23;4.65;;;4.20;99.90;;;;;;5095596;28;20050;-69
2022/03/19 05:01:41;;;;;;;17.17;4.75;;;4.20;99.90;;;;;;5095801;28;20047;-69
2022/03/19 05:04:07;;;;;;;16.17;4.40;;;4.20;99.90;;;;;;5094993;28;20044;-69
2022/03/19 05:06:33;;;;;;;12.20;4.82;;;4.20;99.90;;;;;;5097670;28;20373;-69
2022/03/19 05:11:43;;;;;;;14.48;4.90;;;4.20;99.90;;;;;;5094573;27;20047;-68
2022/03/19 05:14:09;;;;;;;14.32;4.70;;;4.20;99.90;;;;;;5075829;28;20511;-69
2022/03/19 05:16:36;;;;;;;11.38;4.15;;;4.30;99.90;;;;;;5089833;28;20044;-69
2022/03/19 05:19:02;;;;;;;11.13;4.35;;;4.30;99.90;;;;;;5093832;28;20055;-68
2022/03/19 05:21:28;;;;;;;14.95;4.57;;;4.30;99.90;;;;;;5089969;27;20669;-69
2022/03/19 05:23:54;;;;;;;11.70;3.90;;;4.30;99.90;;;;;;5091893;28;20070;-69
2022/03/19 05:26:20;;;;;;;13.38;4.47;;;4.30;99.90;;;;;;5100801;28;20108;-69
2022/03/19 05:28:46;;;;;;;12.43;4.32;;;4.40;99.90;;;;;;5074262;28;20757;-68
2022/03/19 05:31:12;;;;;;;14.88;4.10;;;4.30;99.90;;;;;;5095413;28;20412;-68
2022/03/19 05:36:24;;;;;;;15.35;4.65;;;4.20;99.90;;;;;;5091128;28;20047;-69
2022/03/19 05:38:50;;;;;;;13.02;4.20;;;4.30;99.90;;;;;;5094800;28;20051;-69
2022/03/19 05:41:16;;;;;;;14.75;4.50;;;4.30;99.90;;;;;;5091629;28;20047;-69
2022/03/19 05:43:43;;;;;;;13.85;4.70;;;4.30;99.90;;;;;;5101848;28;20721;-70
2022/03/19 05:46:09;;;;;;;13.73;4.32;;;4.20;99.90;;;;;;5083874;28;20093;-69
2022/03/19 05:48:34;;;;;;;13.25;3.90;;;4.30;99.90;;;;;;5062928;28;20075;-70
2022/03/19 05:51:01;;;;;;;13.05;4.35;;;4.30;99.90;;;;;;5097957;28;20040;-69
2022/03/19 05:53:27;;;;;;;13.35;3.88;;;4.20;99.90;;;;;;5102877;28;20172;-69
2022/03/19 05:55:53;;;;;;;11.13;3.90;;;4.30;99.90;;;;;;5101125;28;20123;-69
2022/03/19 05:58:18;;;;;;;11.98;4.00;;;4.20;99.90;;;;;;5083762;28;20036;-69
2022/03/19 06:00:44;;;;;;;14.98;4.32;;;4.20;99.90;;;;;;5083378;28;20559;-69
2022/03/19 06:03:09;;;;;;;9.38;3.53;;;4.20;99.90;;;;;;5100095;28;20409;-69
2022/03/19 06:05:35;;;;;;;12.48;3.72;;;4.20;99.90;;;;;;5095250;28;20044;-70
2022/03/19 06:08:01;;;;;;;18.20;3.97;;;4.20;99.90;;;;;;5083919;28;20347;-69
2022/03/19 06:10:27;;;;;;;11.35;3.40;;;4.20;99.90;;;;;;5104334;28;20059;-69
2022/03/19 06:12:52;;;;;;;10.93;3.80;;;4.20;99.90;;;;;;5085684;28;20043;-70
2022/03/19 06:15:18;;;;;;;13.88;3.70;;;4.20;99.90;;;;;;5103980;28;20036;-69
2022/03/19 06:17:43;;;;;;;10.82;3.67;;;4.20;99.90;;;;;;5081031;28;20462;-69
2022/03/19 06:20:10;;;;;;;15.73;3.53;;;4.20;99.90;;;;;;5101714;28;20492;-69
2022/03/19 06:22:39;;;;;;;12.40;3.80;;;4.30;99.90;;;;;;5092161;28;20130;-71
2022/03/19 06:25:05;;;;;;;13.40;4.15;;;4.20;99.90;;;;;;5095257;28;20497;-69
2022/03/19 06:27:31;;;;;;;12.20;3.83;;;4.20;99.90;;;;;;5100690;28;20044;-70
2022/03/19 06:29:56;;;;;;;13.73;3.50;;;4.20;99.90;;;;;;5103578;28;20051;-70
2022/03/19 06:32:22;;;;;;;11.45;3.45;;;4.20;99.90;;;;;;5098995;28;20035;-69
2022/03/19 06:34:48;;;;;;;11.10;3.53;;;4.30;99.90;;;;;;5102864;28;20045;-69
2022/03/19 06:37:20;;;;;;;13.02;4.00;;;4.30;99.90;;;;;;5101293;28;20260;-69
2022/03/19 06:39:48;;;;;;;9.52;3.33;;;4.30;99.90;;;;;;5095541;28;20056;-69
2022/03/19 06:42:13;;;;;;;10.32;3.78;;;4.30;99.90;;;;;;5095705;28;20058;-70
2022/03/19 06:44:39;;;;;;;12.85;3.42;;;4.40;99.90;;;;;;5083885;28;20052;-70
2022/03/19 06:47:05;;;;;;;11.40;3.58;;;4.40;99.90;;;;;;5103170;28;20054;-69
2022/03/19 06:49:31;;;;;;;12.50;3.60;;;4.40;99.90;;;;;;5061090;28;20108;-69
2022/03/19 06:51:57;;;;;;;21.17;4.43;;;4.50;99.90;;;;;;5096281;28;20040;-70
2022/03/19 06:54:22;;;;;;;10.55;3.40;;;4.50;99.90;;;;;;5101373;27;20140;-70
2022/03/19 06:56:48;;;;;;;12.52;3.65;;;4.60;99.90;;;;;;5086995;28;20054;-69
2022/03/19 06:59:13;;;;;;;11.70;3.30;;;4.60;99.90;;;;;;5105808;28;20044;-69
2022/03/19 07:01:39;;;;;;;19.88;4.45;;;4.70;99.90;;;;;;5106120;27;20116;-70
2022/03/19 07:04:05;;;;;;;15.77;3.75;;;4.70;99.90;;;;;;5110446;28;20554;-70
2022/03/19 07:06:31;;;;;;;14.73;3.17;;;4.80;99.90;;;;;;5105607;28;20130;-70
2022/03/19 07:08:56;;;;;;;13.95;3.80;;;4.80;99.90;;;;;;5108958;27;20043;-69
2022/03/19 07:11:22;;;;;;;15.13;3.80;;;4.90;99.90;;;;;;5107170;28;20134;-70
2022/03/19 07:13:48;;;;;;;13.93;3.85;;;4.90;99.90;;;;;;5107128;27;20663;-69
2022/03/19 07:16:15;;;;;;;13.57;3.50;;;5.00;99.90;;;;;;5082454;28;20040;-69
2022/03/19 07:18:42;;;;;;;14.20;3.60;;;5.10;99.90;;;;;;5104221;28;20067;-69
2022/03/19 07:21:09;;;;;;;13.38;3.72;;;5.20;99.90;;;;;;5104704;28;20031;-70
2022/03/19 07:23:35;;;;;;;14.30;3.55;;;5.20;99.90;;;;;;5101112;28;20405;-70
2022/03/19 07:26:01;;;;;;;14.88;3.63;;;5.30;99.90;;;;;;5082114;28;20051;-70
2022/03/19 07:28:28;;;;;;;12.63;3.60;;;5.30;99.90;;;;;;5102815;28;20047;-70
2022/03/19 07:30:54;;;;;;;13.20;4.25;;;5.40;99.90;;;;;;5098965;27;20783;-67
2022/03/19 07:33:20;;;;;;;13.55;4.10;;;5.50;99.90;;;;;;5094538;27;20080;-69
2022/03/19 07:35:45;;;;;;;11.70;3.72;;;5.50;99.90;;;;;;5090900;27;20130;-68
2022/03/19 07:38:11;;;;;;;14.68;4.05;;;5.60;99.90;;;;;;5094302;28;20244;-67
2022/03/19 07:43:23;;;;;;;14.45;4.38;;;5.70;99.90;;;;;;5095989;27;20086;-69
2022/03/19 07:45:50;;;;;;;15.23;4.40;;;5.80;99.90;;;;;;5098162;28;20043;-68
2022/03/19 07:48:15;;;;;;;14.18;4.07;;;5.90;99.90;;;;;;5103865;28;20043;-68
2022/03/19 07:50:41;;;;;;;17.60;4.53;;;5.90;99.90;;;;;;5101636;28;20038;-69
2022/03/19 07:53:08;;;;;;;13.82;4.40;;;6.00;99.90;;;;;;5094883;28;20146;-68
2022/03/19 07:55:34;;;;;;;15.70;4.18;;;6.10;99.90;;;;;;5076983;28;20066;-71
2022/03/19 07:58:00;;;;;;;14.50;3.90;;;6.20;99.90;;;;;;5075196;28;20062;-69
2022/03/19 08:00:26;;;;;;;10.27;3.97;;;6.30;99.90;;;;;;5095309;27;20116;-69
2022/03/19 08:02:52;;;;;;;15.82;4.10;;;6.30;99.90;;;;;;5093859;28;20145;-69
2022/03/19 08:05:18;;;;;;;12.38;3.75;;;6.40;99.90;;;;;;5093145;28;20040;-68
2022/03/19 08:07:44;;;;;;;13.68;4.03;;;6.40;99.90;;;;;;5109089;28;20035;-69
2022/03/19 08:10:10;;;;;;;13.18;3.50;;;6.50;99.90;;;;;;5107543;28;20055;-68
2022/03/19 08:12:37;;;;;;;13.02;3.45;;;6.60;99.90;;;;;;5098198;28;20043;-69
2022/03/19 08:15:03;;;;;;;9.25;3.28;;;6.70;99.90;;;;;;5096533;28;20044;-71
2022/03/19 08:17:29;;;;;;;10.38;3.50;;;6.80;99.90;;;;;;5101116;28;20486;-77
2022/03/19 08:19:59;;;;;;;9.30;3.35;;;6.80;99.90;;;;;;5091461;28;20055;-67
2022/03/19 08:22:27;;;;;;;10.23;2.90;;;6.90;99.90;;;;;;5103452;28;20131;-70
2022/03/19 08:24:53;;;;;;;9.85;3.17;;;7.00;99.90;;;;;;5103732;28;20100;-71
2022/03/19 08:27:24;;;;;;;10.02;3.08;;;7.00;99.90;;;;;;5097474;28;20088;-72
2022/03/19 08:29:54;;;;;;;9.15;3.17;;;7.10;99.90;;;;;;5062162;28;20044;-72
2022/03/19 08:32:35;;;;;;;9.95;3.35;;;7.20;99.90;;;;;;5066254;28;20048;-72
2022/03/19 08:35:08;;;;;;;11.15;3.35;;;7.20;99.90;;;;;;5092740;28;20047;-72
2022/03/19 08:37:40;;;;;;;11.23;3.60;;;7.30;99.90;;;;;;5079882;28;20044;-73
2022/03/19 08:40:21;;;;;;;11.23;3.17;;;7.40;99.90;;;;;;5089747;28;20043;-73
2022/03/19 08:43:02;;;;;;;11.70;3.25;;;7.40;99.90;;;;;;5078922;28;20060;-73
2022/03/19 08:45:31;;;;;;;10.40;2.88;;;7.40;99.90;;;;;;5078350;28;20119;-72
2022/03/19 08:47:57;;;;;;;13.32;3.92;;;7.50;99.90;;;;;;5089120;28;20123;-72
2022/03/19 08:50:24;;;;;;;14.93;3.45;;;7.60;99.90;;;;;;5108192;28;20035;-73
2022/03/19 08:52:50;;;;;;;14.10;3.38;;;7.70;99.90;;;;;;5100861;28;20047;-71
2022/03/19 08:55:15;;;;;;;11.98;3.38;;;7.70;99.90;;;;;;5081881;28;20498;-72
2022/03/19 08:57:41;;;;;;;11.95;3.63;;;7.80;99.90;;;;;;5080598;28;20047;-71
2022/03/19 09:00:08;;;;;;;10.43;3.33;;;7.90;99.90;;;;;;5106597;28;20349;-72
2022/03/19 09:02:34;;;;;;;15.45;3.72;;;8.00;99.90;;;;;;5102317;28;20039;-73
2022/03/19 09:05:00;;;;;;;12.98;3.78;;;8.00;99.90;;;;;;5106223;28;20047;-72
2022/03/19 09:07:26;;;;;;;16.98;3.85;;;8.10;99.90;;;;;;5107330;28;20493;-73
2022/03/19 09:09:54;;;;;;;12.63;3.60;;;8.20;99.90;;;;;;5103808;28;20134;-70
2022/03/19 09:12:25;;;;;;;10.77;3.10;;;8.20;99.90;;;;;;5100565;28;20420;-73
2022/03/19 09:14:52;;;;;;;12.27;3.22;;;8.40;99.90;;;;;;5107763;28;20035;-74
2022/03/19 09:17:18;;;;;;;13.25;3.70;;;8.50;99.90;;;;;;5076158;28;20567;-73
2022/03/19 09:19:43;;;;;;;13.55;3.42;;;8.50;99.90;;;;;;5099173;28;20044;-72
2022/03/19 09:22:09;;;;;;;12.80;3.75;;;8.60;99.90;;;;;;5104948;28;20035;-70
2022/03/19 09:24:35;;;;;;;15.93;3.53;;;8.60;99.90;;;;;;5102279;28;20081;-73
2022/03/19 09:27:00;;;;;;;10.43;2.92;;;8.70;99.90;;;;;;5098012;28;20127;-75
2022/03/19 09:29:27;;;;;;;11.13;3.00;;;8.70;99.40;;;;;;5102172;28;20067;-73
2022/03/19 09:31:52;;;;;;;10.13;2.78;;;8.80;99.20;;;;;;5099019;28;20052;-72
2022/03/19 09:34:18;;;;;;;7.75;2.45;;;8.90;99.60;;;;;;5088499;27;20899;-70
2022/03/19 09:36:46;;;;;;;8.48;2.58;;;9.00;98.40;;;;;;5081774;28;20036;-72
2022/03/19 09:39:14;;;;;;;14.10;3.05;;;9.00;96.60;;;;;;5085161;28;20084;-75
2022/03/19 09:41:42;;;;;;;10.98;2.85;;;9.10;94.60;;;;;;5104132;28;20122;-73
2022/03/19 09:44:12;;;;;;;9.57;2.63;;;9.10;96.50;;;;;;5106558;28;20063;-73
2022/03/19 09:46:38;;;;;;;10.02;2.47;;;9.30;96.70;;;;;;5105608;28;20059;-72
2022/03/19 09:49:04;;;;;;;9.88;3.08;;;9.30;94.10;;;;;;5107128;28;20048;-72
2022/03/19 09:51:33;;;;;;;10.32;2.97;;;9.40;93.60;;;;;;5096522;28;20051;-74
2022/03/19 09:53:59;;;;;;;11.63;2.90;;;9.40;94.00;;;;;;5103923;28;20071;-75
2022/03/19 09:56:25;;;;;;;8.02;2.63;;;9.50;95.00;;;;;;5085037;28;20098;-75
2022/03/19 09:58:52;;;;;;;11.05;2.33;;;9.60;93.00;;;;;;5101858;28;20040;-75
2022/03/19 10:01:18;;;;;;;10.10;2.10;;;9.60;90.70;;;;;;5107205;27;20047;-76
2022/03/19 10:03:45;;;;;;;6.70;1.70;;;9.70;87.40;;;;;;5088165;28;20135;-75
2022/03/19 10:08:58;;;;;;;9.90;2.58;;;9.70;82.40;;;;;;5101301;28;20048;-73
2022/03/19 10:11:28;;;;;;;8.93;2.70;;;9.80;83.20;;;;;;5096825;28;20043;-75
2022/03/19 10:13:54;;;;;;;8.43;2.42;;;9.90;82.70;;;;;;5100832;28;20040;-71
2022/03/19 10:16:28;;;;;;;9.75;2.28;;;10.00;83.70;;;;;;5097448;28;20498;-75
2022/03/19 10:18:58;;;;;;;7.00;2.00;;;10.00;83.30;;;;;;5101046;28;20036;-71
2022/03/19 10:21:24;;;;;;;7.60;2.05;;;10.10;81.50;;;;;;5097239;28;20093;-74
2022/03/19 10:23:50;;;;;;;8.02;2.20;;;10.10;81.90;;;;;;5098285;28;20122;-71
2022/03/19 10:26:23;;;;;;;8.35;2.20;;;10.10;81.50;;;;;;5101490;28;20123;-74
2022/03/19 10:28:59;;;;;;;9.30;2.38;;;10.20;78.80;;;;;;5104108;28;20143;-73
2022/03/19 10:31:33;;;;;;;7.30;2.42;;;10.20;80.00;;;;;;5105900;28;20040;-73
2022/03/19 10:33:59;;;;;;;6.85;2.20;;;10.30;77.90;;;;;;5089266;28;20078;-73
2022/03/19 10:36:30;;;;;;;7.43;2.28;;;10.30;76.20;;;;;;5104791;28;20127;-74
2022/03/19 10:38:56;;;;;;;8.73;2.28;;;10.40;75.10;;;;;;5104461;28;20051;-73
2022/03/19 10:41:22;;;;;;;11.00;2.60;;;10.50;77.20;;;;;;5108025;28;20381;-72
2022/03/19 10:43:48;;;;;;;6.60;2.17;;;10.50;76.10;;;;;;5101929;28;20123;-74
2022/03/19 10:46:17;;;;;;;9.13;2.00;;;10.60;76.50;;;;;;5107264;28;20075;-72
2022/03/19 10:48:47;;;;;;;6.22;2.10;;;10.60;73.50;;;;;;5100965;28;20145;-72
2022/03/19 10:51:12;;;;;;;7.88;2.20;;;10.60;73.90;;;;;;5108717;27;20100;-72
2022/03/19 10:53:38;;;;;;;9.73;2.40;;;10.70;75.70;;;;;;5100603;28;20496;-69
2022/03/19 10:56:06;;;;;;;7.60;2.30;;;10.80;76.50;;;;;;5100337;28;20171;-72
2022/03/19 10:58:32;;;;;;;10.32;2.75;;;10.80;74.20;;;;;;5103718;27;20031;-74
2022/03/19 11:01:00;;;;;;;6.38;1.73;;;10.90;72.80;;;;;;5106439;28;20962;-74
2022/03/19 11:03:28;;;;;;;8.30;1.67;;;10.90;70.70;;;;;;5104520;28;20035;-72
2022/03/19 11:06:02;;;;;;;8.23;1.55;;;10.90;69.80;;;;;;5096094;28;20156;-70
2022/03/19 11:08:30;;;;;;;8.88;1.70;;;11.00;69.60;;;;;;5107806;27;20448;-71
2022/03/19 11:10:58;;;;;;;6.45;1.60;;;11.00;67.30;;;;;;5104782;28;20039;-70
2022/03/19 11:13:25;;;;;;;7.00;1.85;;;11.20;65.20;;;;;;5102178;28;20047;-70
2022/03/19 11:15:54;;;;;;;7.20;1.63;;;11.20;65.60;;;;;;5091346;28;20119;-71
2022/03/19 11:18:23;;;;;;;6.95;1.65;;;11.20;65.80;;;;;;5080036;28;20127;-73
2022/03/19 11:20:50;;;;;;;7.70;2.08;;;11.30;64.50;;;;;;5097066;28;20035;-75
2022/03/19 11:23:24;;;;;;;9.75;1.88;;;11.30;64.90;;;;;;5101485;28;20082;-77
2022/03/19 11:25:57;;;;;;;6.13;1.70;;;11.40;65.30;;;;;;5100607;27;20382;-74
2022/03/19 11:28:23;;;;;;;8.65;2.13;;;11.40;65.00;;;;;;5106989;28;20086;-79
2022/03/19 11:31:08;;;;;;;6.55;1.65;;;11.40;64.30;;;;;;5101045;28;20055;-73
2022/03/19 11:33:38;;;;;;;7.05;2.03;;;11.50;65.30;;;;;;5101034;28;20446;-73
2022/03/19 11:36:07;;;;;;;8.63;1.88;;;11.50;64.50;;;;;;5107786;28;20032;-77
2022/03/19 11:38:54;;;;;;;6.43;1.92;;;11.60;64.10;;;;;;5105765;28;20087;-72
2022/03/19 11:41:25;;;;;;;7.47;1.55;;;11.70;62.40;;;;;;5103588;28;20039;-69
2022/03/19 11:44:11;;;;;;;6.03;2.13;;;11.70;61.80;;;;;;5105817;28;20043;-68
2022/03/19 11:46:56;;;;;;;6.78;1.80;;;11.80;60.40;;;;;;5105492;28;20056;-72
2022/03/19 11:49:52;;;;;;;5.15;1.60;;;11.80;60.00;;;;;;5085744;28;20079;-72
2022/03/19 11:52:47;;;;;;;6.00;1.60;;;11.90;57.40;;;;;;5106086;28;20079;-72
2022/03/19 11:55:16;;;;;;;7.60;1.30;;;11.90;57.30;;;;;;5087198;28;20095;-71
2022/03/19 11:58:05;;;;;;;6.47;1.67;;;11.90;57.20;;;;;;5098309;27;20060;-70
2022/03/19 12:00:34;;;;;;;7.10;1.65;;;12.10;57.10;;;;;;5097929;28;20054;-73
2022/03/19 12:03:17;;;;;;;4.57;1.48;;;12.00;56.90;;;;;;5102618;28;20519;-73
2022/03/19 12:05:45;;;;;;;6.00;1.30;;;12.10;56.80;;;;;;5087119;28;20553;-73
2022/03/19 12:08:19;;;;;;;5.85;1.40;;;12.10;56.00;;;;;;5108381;28;20050;-72
2022/03/19 12:11:02;;;;;;;5.97;1.50;;;12.20;57.00;;;;;;5104049;28;20047;-73
2022/03/19 12:13:27;;;;;;;4.45;1.20;;;12.30;57.40;;;;;;5104234;28;20083;-73
2022/03/19 12:15:57;;;;;;;4.95;1.50;;;12.40;58.90;;;;;;5090509;27;20071;-73
2022/03/19 12:18:39;;;;;;;7.68;1.25;;;12.40;56.90;;;;;;5106821;28;20043;-73
2022/03/19 12:21:17;;;;;;;6.78;1.45;;;12.40;58.10;;;;;;5101872;27;20040;-73
2022/03/19 12:24:02;;;;;;;4.85;1.50;;;12.40;56.20;;;;;;5099411;28;20058;-73
2022/03/19 12:26:40;;;;;;;7.18;1.65;;;12.40;56.70;;;;;;5107034;28;20146;-73
2022/03/19 12:29:08;;;;;;;7.18;1.98;;;12.40;56.20;;;;;;5097270;27;20040;-72
2022/03/19 12:31:44;;;;;;;4.45;1.52;;;12.40;55.30;;;;;;5100393;27;20035;-73
2022/03/19 12:34:24;;;;;;;4.20;1.40;;;12.40;55.20;;;;;;5107243;28;20081;-73
2022/03/19 12:36:51;;;;;;;5.43;1.55;;;12.40;55.00;;;;;;5089073;28;20036;-74
2022/03/19 12:39:17;;;;;;;7.60;1.70;;;12.50;56.60;;;;;;5100721;28;20044;-74
2022/03/19 12:41:44;;;;;;;5.25;1.50;;;12.60;55.80;;;;;;5104694;28;20401;-73
2022/03/19 12:44:21;;;;;;;5.13;1.42;;;12.60;55.80;;;;;;5109854;27;20035;-72
2022/03/19 12:46:56;;;;;;;6.32;1.38;;;12.60;54.20;;;;;;5107268;27;20086;-74
2022/03/19 12:49:23;;;;;;;5.60;1.50;;;12.60;55.00;;;;;;5087340;28;20086;-72
2022/03/19 12:51:49;;;;;;;5.35;1.63;;;12.70;54.80;;;;;;5103256;27;20066;-72
2022/03/19 12:54:25;;;;;;;5.70;1.40;;;12.70;55.40;;;;;;5107311;28;20054;-72
2022/03/19 12:56:52;;;;;;;6.85;1.52;;;12.70;55.30;;;;;;5105521;27;20051;-73
2022/03/19 12:59:31;;;;;;;4.65;1.38;;;12.80;55.40;;;;;;5106383;27;20800;-72
2022/03/19 13:01:57;;;;;;;4.15;1.50;;;12.80;54.80;;;;;;5088654;27;20103;-73
2022/03/19 13:04:28;;;;;;;8.75;2.10;;;12.80;55.40;;;;;;5094368;27;20043;-73
2022/03/19 13:06:55;;;;;;;5.80;1.80;;;12.90;56.30;;;;;;5092245;27;20036;-72